createdAt,value
2023-02-22T00:00:01.081Z,101109.97
2023-02-22T00:02:32.591Z,101084.03
2023-02-22T00:05:02.227Z,101075.41
2023-02-22T00:07:35.870Z,101092.06
2023-02-22T00:10:09.169Z,101105.81
2023-02-22T00:12:38.899Z,101097.28
2023-02-22T00:15:09.156Z,101077.59
2023-02-22T00:17:39.137Z,101086.16
2023-02-22T00:20:10.097Z,101087.78
2023-02-22T00:22:42.687Z,101083.38
2023-02-22T00:25:12.989Z,101080.69
2023-02-22T00:27:43.187Z,101058.31
2023-02-22T00:30:19.185Z,101092.81
2023-02-22T00:32:50.581Z,101052.25
2023-02-22T00:35:23.573Z,101017.78
2023-02-22T00:38:00.410Z,101078.03
2023-02-22T00:40:32.981Z,101084.97
2023-02-22T00:43:04.161Z,101085.59
2023-02-22T00:45:35.863Z,101064.94
2023-02-22T00:48:07.242Z,101066.84
2023-02-22T00:50:37.316Z,101090.06
2023-02-22T00:53:10.446Z,101058.31
2023-02-22T00:55:41.233Z,101057.50
2023-02-22T00:58:11.364Z,101076.59
2023-02-22T01:00:43.014Z,101052.41
2023-02-22T01:03:15.166Z,101080.06
2023-02-22T01:05:45.622Z,101055.94
2023-02-22T01:08:19.404Z,101073.41
2023-02-22T01:10:49.633Z,101039.38
2023-02-22T01:13:20.073Z,101055.09
2023-02-22T01:15:50.044Z,101041.34
2023-02-22T01:18:21.991Z,100998.47
2023-02-22T01:20:51.656Z,101052.09
2023-02-22T01:23:24.025Z,101048.94
2023-02-22T01:25:54.198Z,101028.94
2023-02-22T01:28:24.857Z,100987.41
2023-02-22T01:30:56.782Z,101028.13
2023-02-22T01:33:27.436Z,101029.91
2023-02-22T01:35:57.067Z,101043.81
2023-02-22T01:38:29.513Z,101040.50
2023-02-22T01:40:59.273Z,101024.88
2023-02-22T01:43:33.414Z,101037.06
2023-02-22T01:46:05.346Z,101015.38
2023-02-22T01:48:41.088Z,101032.78
2023-02-22T01:51:15.593Z,101023.03
2023-02-22T01:53:53.630Z,101024.06
2023-02-22T01:56:24.736Z,101007.66
2023-02-22T01:58:58.484Z,101030.16
2023-02-22T02:01:29.558Z,100972.31
2023-02-22T02:04:00.876Z,101021.72
2023-02-22T02:06:34.246Z,100997.53
2023-02-22T02:09:12.832Z,100992.50
2023-02-22T02:11:44.392Z,100986.41
2023-02-22T02:14:16.291Z,101011.72
2023-02-22T02:16:53.350Z,101014.38
2023-02-22T02:19:35.091Z,101012.69
2023-02-22T02:22:22.366Z,100982.50
2023-02-22T02:25:29.450Z,101011.00
2023-02-22T02:28:29.960Z,101005.84
2023-02-22T02:31:25.903Z,100994.72
2023-02-22T02:34:05.526Z,100949.13
2023-02-22T02:36:40.610Z,100989.75
2023-02-22T02:39:20.307Z,100989.81
2023-02-22T02:41:53.287Z,100951.22
2023-02-22T02:44:31.665Z,100972.00
2023-02-22T02:47:08.149Z,100951.34
2023-02-22T02:49:46.838Z,100933.28
2023-02-22T02:52:20.862Z,100958.41
2023-02-22T02:54:52.079Z,100921.22
2023-02-22T02:57:22.025Z,100957.53
2023-02-22T02:59:51.759Z,100949.72
2023-02-22T03:02:43.888Z,100940.09
2023-02-22T03:05:32.993Z,100941.63
2023-02-22T03:08:10.913Z,100933.84
2023-02-22T03:10:51.215Z,100929.72
2023-02-22T03:13:33.525Z,100930.72
2023-02-22T03:16:14.228Z,100907.31
2023-02-22T03:18:54.541Z,100906.50
2023-02-22T03:21:36.584Z,100873.69
2023-02-22T03:24:12.699Z,100908.06
2023-02-22T03:26:45.315Z,100913.97
2023-02-22T03:29:20.258Z,100862.28
2023-02-22T03:31:56.056Z,100909.69
2023-02-22T03:34:32.404Z,100897.41
2023-02-22T03:37:13.974Z,100854.91
2023-02-22T03:39:47.307Z,100893.38
2023-02-22T03:42:22.501Z,100881.19
2023-02-22T03:44:54.462Z,100856.13
2023-02-22T03:47:31.408Z,100916.56
2023-02-22T03:50:07.041Z,100915.59
2023-02-22T03:52:41.592Z,100902.53
2023-02-22T03:55:17.833Z,100907.63
2023-02-22T03:57:51.906Z,100905.94
2023-02-22T04:00:24.696Z,100917.06
2023-02-22T04:02:54.728Z,100916.00
2023-02-22T04:05:25.989Z,100915.88
2023-02-22T04:08:00.133Z,100889.22
2023-02-22T04:10:30.716Z,100893.19
2023-02-22T04:13:00.860Z,100911.25
2023-02-22T04:15:30.615Z,100899.97
2023-02-22T04:18:06.925Z,100903.31
2023-02-22T04:20:36.603Z,100916.16
2023-02-22T04:23:17.215Z,100886.50
2023-02-22T04:25:47.066Z,100913.16
2023-02-22T04:28:19.366Z,100880.75
2023-02-22T04:31:12.136Z,100893.69
2023-02-22T04:33:42.156Z,100908.25
2023-02-22T04:36:16.084Z,100900.31
2023-02-22T04:38:49.248Z,100887.44
2023-02-22T04:41:20.869Z,100847.69
2023-02-22T04:43:50.543Z,100886.38
2023-02-22T04:46:24.020Z,100849.50
2023-02-22T04:48:55.170Z,100883.31
2023-02-22T04:51:28.054Z,100874.78
2023-02-22T04:54:08.686Z,100881.63
2023-02-22T04:56:40.649Z,100882.38
2023-02-22T04:59:10.294Z,100828.41
2023-02-22T05:01:41.451Z,100802.22
2023-02-22T05:04:11.108Z,100864.91
2023-02-22T05:06:40.775Z,100857.72
2023-02-22T05:09:13.110Z,100888.66
2023-02-22T05:11:42.848Z,100873.69
2023-02-22T05:14:12.809Z,100883.91
2023-02-22T05:16:42.531Z,100833.72
2023-02-22T05:19:12.134Z,100833.91
2023-02-22T05:21:42.099Z,100879.00
2023-02-22T05:24:14.426Z,100830.34
2023-02-22T05:26:46.104Z,100848.50
2023-02-22T05:29:16.172Z,100841.84
2023-02-22T05:31:45.894Z,100863.31
2023-02-22T05:34:15.639Z,100830.84
2023-02-22T05:36:46.593Z,100862.84
2023-02-22T05:39:19.036Z,100812.44
2023-02-22T05:41:48.732Z,100826.75
2023-02-22T05:44:18.476Z,100833.53
2023-02-22T05:46:48.177Z,100842.19
2023-02-22T05:49:18.514Z,100755.09
2023-02-22T05:51:48.095Z,100831.81
2023-02-22T05:54:20.419Z,100831.72
2023-02-22T05:56:50.571Z,100800.09
2023-02-22T05:59:20.903Z,100820.78
2023-02-22T06:01:50.533Z,100775.03
2023-02-22T06:04:20.338Z,100795.78
2023-02-22T06:06:50.000Z,100787.25
2023-02-22T06:09:22.370Z,100821.91
2023-02-22T06:11:54.381Z,100839.91
2023-02-22T06:14:24.423Z,100836.22
2023-02-22T06:16:56.947Z,100837.69
2023-02-22T06:19:27.118Z,100823.44
2023-02-22T06:22:00.027Z,100839.91
2023-02-22T06:24:32.287Z,100805.41
2023-02-22T06:27:04.709Z,100848.88
2023-02-22T06:29:34.368Z,100841.81
2023-02-22T06:32:04.105Z,100837.34
2023-02-22T06:34:33.859Z,100844.25
2023-02-22T06:37:03.462Z,100834.50
2023-02-22T06:39:35.703Z,100831.75
2023-02-22T06:42:05.412Z,100845.06
2023-02-22T06:44:35.490Z,100850.13
2023-02-22T06:47:05.262Z,100826.66
2023-02-22T06:49:34.889Z,100831.00
2023-02-22T06:52:06.746Z,100800.91
2023-02-22T06:54:40.004Z,100816.47
2023-02-22T06:57:10.310Z,100829.19
2023-02-22T06:59:39.955Z,100844.25
2023-02-22T07:02:09.794Z,100836.88
2023-02-22T07:04:41.041Z,100820.56
2023-02-22T07:07:12.658Z,100818.03
2023-02-22T07:09:45.646Z,100815.50
2023-02-22T07:12:15.360Z,100819.28
2023-02-22T07:14:45.684Z,100811.69
2023-02-22T07:17:15.387Z,100819.53
2023-02-22T07:19:45.003Z,100851.66
2023-02-22T07:22:15.199Z,100790.53
2023-02-22T07:24:47.975Z,100840.66
2023-02-22T07:27:17.823Z,100853.78
2023-02-22T07:29:47.563Z,100849.00
2023-02-22T07:32:17.529Z,100853.28
2023-02-22T07:34:48.688Z,100851.06
2023-02-22T07:37:21.722Z,100847.72
2023-02-22T07:39:57.392Z,100843.66
2023-02-22T07:42:28.549Z,100842.84
2023-02-22T07:45:00.543Z,100830.84
2023-02-22T07:47:30.425Z,100789.69
2023-02-22T07:50:00.273Z,100850.63
2023-02-22T07:52:29.867Z,100849.09
2023-02-22T07:55:02.159Z,100784.66
2023-02-22T07:57:31.821Z,100832.53
2023-02-22T08:00:01.746Z,100830.94
2023-02-22T08:02:34.413Z,100826.84
2023-02-22T08:05:04.098Z,100847.75
2023-02-22T08:07:33.743Z,100844.63
2023-02-22T08:10:10.312Z,100801.72
2023-02-22T08:13:24.823Z,100568.84
2023-02-22T11:29:37.081Z,100576.88
2023-02-22T11:32:21.508Z,100720.31
2023-02-22T11:35:03.426Z,100534.06
2023-02-22T11:37:39.260Z,100724.59
2023-02-22T11:40:18.479Z,100520.44
2023-02-22T11:42:49.039Z,100648.09
2023-02-22T11:45:25.096Z,100675.69
2023-02-22T11:47:57.358Z,100703.22
2023-02-22T11:50:31.792Z,100554.53
2023-02-22T11:53:17.236Z,100552.75
2023-02-22T11:55:54.750Z,100687.63
2023-02-22T11:58:35.316Z,100684.31
2023-02-22T12:01:17.526Z,100668.97
2023-02-22T12:04:18.908Z,100686.16
2023-02-22T12:06:58.464Z,100637.31
2023-02-22T12:09:37.832Z,100644.22
2023-02-22T12:12:19.026Z,100670.06
2023-02-22T12:15:03.104Z,100658.13
2023-02-22T12:18:00.066Z,100669.31
2023-02-22T12:20:42.632Z,100665.09
2023-02-22T12:23:26.149Z,100589.59
2023-02-22T12:26:01.767Z,100622.28
2023-02-22T12:28:38.702Z,100604.34
2023-02-22T12:31:20.973Z,100623.22
2023-02-22T12:34:02.822Z,100653.28
2023-02-22T12:36:39.285Z,100624.94
2023-02-22T12:39:27.463Z,100595.00
2023-02-22T12:41:58.768Z,100619.88
2023-02-22T12:44:33.963Z,100597.63
2023-02-22T12:47:05.625Z,100631.97
2023-02-22T12:49:43.001Z,100640.59
2023-02-22T12:52:22.260Z,100620.00
2023-02-22T12:55:31.380Z,100628.59
2023-02-22T13:04:20.509Z,100349.28
2023-02-22T13:30:30.250Z,100426.47
2023-02-22T16:30:32.645Z,100401.06
2023-02-22T16:33:34.192Z,100564.81
2023-02-22T16:36:27.691Z,100429.34
2023-02-22T16:39:39.801Z,100447.22
2023-02-22T16:42:24.508Z,100539.78
2023-02-22T16:45:46.464Z,100400.94
2023-02-22T16:48:30.215Z,100271.53
2023-02-22T16:51:44.328Z,100312.56
2023-02-22T16:54:38.059Z,100361.34
2023-02-22T16:57:46.407Z,100375.91
2023-02-22T17:00:33.004Z,100498.44
2023-02-22T17:03:17.578Z,100566.22
2023-02-22T17:06:05.406Z,100586.63
2023-02-22T17:09:03.317Z,100580.56
2023-02-22T17:12:01.325Z,100354.09
2023-02-22T17:14:47.720Z,100514.41
2023-02-22T17:17:44.069Z,100400.28
2023-02-22T17:29:05.024Z,100379.22
2023-02-22T17:32:32.264Z,100551.63
2023-02-22T17:40:12.797Z,100445.88
2023-02-22T17:45:50.548Z,100320.53
2023-02-22T17:48:32.359Z,100385.78
2023-02-22T17:51:54.842Z,100427.72
2023-02-22T17:55:30.776Z,100607.00
2023-02-22T18:01:51.085Z,100378.69
2023-02-22T18:05:31.365Z,100383.63
2023-02-22T18:08:59.231Z,100438.50
2023-02-22T18:12:46.760Z,100446.25
2023-02-22T18:19:38.949Z,100404.50
2023-02-22T18:22:53.831Z,100379.81
2023-02-22T18:26:03.862Z,100491.22
2023-02-22T18:28:44.964Z,100408.59
2023-02-22T18:31:19.647Z,100460.13
2023-02-22T18:33:51.773Z,100542.56
2023-02-22T18:36:26.595Z,100610.41
2023-02-22T18:39:03.547Z,100404.38
2023-02-22T18:41:36.286Z,100594.94
2023-02-22T18:44:10.565Z,100533.84
2023-02-22T18:46:40.816Z,100599.22
2023-02-22T18:49:15.293Z,100324.97
2023-02-22T18:51:46.352Z,100405.69
2023-02-22T18:54:22.219Z,100532.75
2023-02-22T18:56:52.065Z,100319.16
2023-02-22T18:59:25.074Z,100489.06
2023-02-22T19:01:54.951Z,100514.88
2023-02-22T19:04:25.196Z,100583.84
2023-02-22T19:06:57.650Z,100584.81
2023-02-22T19:09:29.965Z,100550.34
2023-02-22T19:11:59.687Z,100546.78
2023-02-22T19:14:29.422Z,100572.47
2023-02-22T19:17:01.536Z,100574.97
2023-02-22T19:19:31.679Z,100588.66
2023-02-22T19:22:01.346Z,100577.53
2023-02-22T19:24:33.641Z,100576.72
2023-02-22T19:27:05.412Z,100490.75
2023-02-22T19:29:38.148Z,100580.09
2023-02-22T19:32:08.035Z,100576.66
2023-02-22T19:34:38.218Z,100536.22
2023-02-22T19:37:08.742Z,100572.28
2023-02-22T19:39:42.430Z,100561.97
2023-02-22T19:42:12.771Z,100562.69
2023-02-22T19:44:42.485Z,100568.69
2023-02-22T19:47:12.105Z,100570.44
2023-02-22T19:49:41.892Z,100522.25
2023-02-22T19:52:11.519Z,100532.47
2023-02-22T19:54:44.545Z,100574.63
2023-02-22T19:57:16.114Z,100554.91
2023-02-22T19:59:46.128Z,100561.72
2023-02-22T20:02:15.937Z,100572.06
2023-02-22T20:04:50.083Z,100521.34
2023-02-22T20:07:19.805Z,100533.22
2023-02-22T20:09:52.108Z,100559.13
2023-02-22T20:12:21.844Z,100579.66
2023-02-22T20:14:51.477Z,100515.13
2023-02-22T20:17:21.097Z,100579.69
2023-02-22T20:19:50.780Z,100568.59
2023-02-22T20:22:20.881Z,100578.03
2023-02-22T20:24:53.352Z,100574.59
2023-02-22T20:27:24.401Z,100573.66
2023-02-22T20:29:54.065Z,100585.63
2023-02-22T20:32:24.717Z,100583.91
2023-02-22T20:34:54.870Z,100589.78
2023-02-22T20:37:24.582Z,100585.56
2023-02-22T20:39:56.832Z,100568.41
2023-02-22T20:42:26.445Z,100546.88
2023-02-22T20:45:01.718Z,100570.06
2023-02-22T20:47:31.552Z,100582.94
2023-02-22T20:50:01.224Z,100578.75
2023-02-22T20:52:30.909Z,100547.72
2023-02-22T20:55:04.315Z,100564.16
2023-02-22T20:57:33.995Z,100588.97
2023-02-22T21:00:03.721Z,100524.63
2023-02-22T21:02:33.413Z,100560.59
2023-02-22T21:05:03.083Z,100519.44
2023-02-22T21:07:32.795Z,100570.13
2023-02-22T21:10:06.111Z,100581.31
2023-02-22T21:12:36.730Z,100567.53
2023-02-22T21:15:07.783Z,100547.66
2023-02-22T21:17:37.652Z,100543.91
2023-02-22T21:20:12.245Z,100580.88
2023-02-22T21:22:43.869Z,100583.19
2023-02-22T21:25:16.729Z,100584.13
2023-02-22T21:27:47.126Z,100570.25
2023-02-22T21:30:17.859Z,100581.50
2023-02-22T21:32:47.473Z,100574.59
2023-02-22T21:35:17.176Z,100554.81
2023-02-22T21:37:46.800Z,100583.19
2023-02-22T21:40:21.844Z,100554.81
2023-02-22T21:42:52.024Z,100576.97
2023-02-22T21:45:23.391Z,100577.03
2023-02-22T21:47:54.720Z,100568.38
2023-02-22T21:50:25.571Z,100585.53
2023-02-22T21:52:55.384Z,100582.91
2023-02-22T21:55:27.633Z,100584.69
2023-02-22T21:57:57.237Z,100575.00
2023-02-22T22:00:38.136Z,100587.81
2023-02-22T22:03:12.796Z,100578.25
2023-02-22T22:05:45.315Z,100583.31
2023-02-22T22:08:19.543Z,100551.47
2023-02-22T22:10:56.480Z,100586.72
2023-02-22T22:13:28.117Z,100546.13
2023-02-22T22:15:57.922Z,100589.09
2023-02-22T22:18:27.693Z,100594.38
2023-02-22T22:20:57.313Z,100596.84
2023-02-22T22:23:26.904Z,100590.88
2023-02-22T22:26:10.855Z,100566.84
2023-02-22T22:28:41.772Z,100596.72
2023-02-22T22:31:12.577Z,100594.28
2023-02-22T22:33:44.752Z,100578.91
2023-02-22T22:36:16.664Z,100572.03
2023-02-22T22:38:47.189Z,100564.03
2023-02-22T22:41:21.942Z,100604.31
2023-02-22T22:43:54.103Z,100590.53
2023-02-22T22:46:24.151Z,100583.44
2023-02-22T22:48:53.897Z,100607.41
2023-02-22T22:51:23.825Z,100609.19
2023-02-22T22:53:54.866Z,100566.19
2023-02-22T22:56:28.127Z,100609.25
2023-02-22T22:58:59.789Z,100610.16
2023-02-22T23:01:34.296Z,100613.59
2023-02-22T23:04:06.454Z,100614.41
2023-02-22T23:06:39.280Z,100589.66
2023-02-22T23:09:12.145Z,100618.88
2023-02-22T23:11:46.386Z,100574.19
2023-02-22T23:14:19.525Z,100621.44
2023-02-22T23:16:50.119Z,100589.50
2023-02-22T23:19:20.476Z,100594.66
2023-02-22T23:21:51.408Z,100623.75
2023-02-22T23:24:22.556Z,100626.44
2023-02-22T23:26:54.873Z,100625.66
2023-02-22T23:29:25.544Z,100614.41
2023-02-22T23:31:55.294Z,100616.94
2023-02-22T23:34:26.198Z,100605.94
2023-02-22T23:36:55.902Z,100626.50
2023-02-22T23:39:27.339Z,100631.53
2023-02-22T23:42:01.273Z,100624.53
2023-02-22T23:44:31.634Z,100630.34
2023-02-22T23:47:02.537Z,100639.78
2023-02-22T23:49:36.240Z,100635.50
2023-02-22T23:52:06.706Z,100642.22
2023-02-22T23:54:43.856Z,100637.72
2023-02-22T23:57:17.617Z,100621.28
2023-02-22T23:59:47.232Z,100639.44
